sensor_id;sensor_type;location;lat;lon;timestamp;temperature;humidity
44707;DHT22;30433;45.596;8.408;2023-02-11T00:03:54;-1.20;89.90
44707;DHT22;30433;45.596;8.408;2023-02-11T00:09:57;-1.20;89.60
44707;DHT22;30433;45.596;8.408;2023-02-11T00:16:04;-0.90;89.60
44707;DHT22;30433;45.596;8.408;2023-02-11T00:22:06;-0.90;89.20
44707;DHT22;30433;45.596;8.408;2023-02-11T00:28:09;-1.00;88.90
44707;DHT22;30433;45.596;8.408;2023-02-11T00:34:11;-0.90;88.90
44707;DHT22;30433;45.596;8.408;2023-02-11T00:40:13;-0.90;89.00
44707;DHT22;30433;45.596;8.408;2023-02-11T00:46:16;-0.90;89.00
44707;DHT22;30433;45.596;8.408;2023-02-11T00:52:18;-0.90;89.00
44707;DHT22;30433;45.596;8.408;2023-02-11T00:58:20;-1.10;89.70
44707;DHT22;30433;45.596;8.408;2023-02-11T01:04:23;-1.20;89.10
44707;DHT22;30433;45.596;8.408;2023-02-11T01:10:25;-1.30;89.40
44707;DHT22;30433;45.596;8.408;2023-02-11T01:16:28;-1.40;89.60
44707;DHT22;30433;45.596;8.408;2023-02-11T01:22:31;-1.40;90.00
44707;DHT22;30433;45.596;8.408;2023-02-11T01:28:33;-1.30;89.50
44707;DHT22;30433;45.596;8.408;2023-02-11T01:34:35;-1.20;89.50
44707;DHT22;30433;45.596;8.408;2023-02-11T01:40:38;-1.10;90.00
44707;DHT22;30433;45.596;8.408;2023-02-11T01:46:40;-1.30;89.80
44707;DHT22;30433;45.596;8.408;2023-02-11T01:52:42;-1.20;89.90
44707;DHT22;30433;45.596;8.408;2023-02-11T01:58:47;-1.20;89.80
44707;DHT22;30433;45.596;8.408;2023-02-11T02:04:51;-1.80;90.30
44707;DHT22;30433;45.596;8.408;2023-02-11T02:10:54;-1.30;90.00
44707;DHT22;30433;45.596;8.408;2023-02-11T02:16:57;-1.80;90.40
44707;DHT22;30433;45.596;8.408;2023-02-11T02:23:09;-1.50;90.40
44707;DHT22;30433;45.596;8.408;2023-02-11T02:35:39;-0.90;89.80
44707;DHT22;30433;45.596;8.408;2023-02-11T02:41:43;-1.00;89.80
44707;DHT22;30433;45.596;8.408;2023-02-11T02:47:46;-1.10;88.90
44707;DHT22;30433;45.596;8.408;2023-02-11T02:53:53;-1.00;89.00
44707;DHT22;30433;45.596;8.408;2023-02-11T03:00:00;-0.90;89.00
44707;DHT22;30433;45.596;8.408;2023-02-11T03:06:04;-1.00;89.80
44707;DHT22;30433;45.596;8.408;2023-02-11T03:12:09;-1.50;90.20
44707;DHT22;30433;45.596;8.408;2023-02-11T03:18:12;-1.90;90.00
44707;DHT22;30433;45.596;8.408;2023-02-11T03:24:15;-2.20;90.80
44707;DHT22;30433;45.596;8.408;2023-02-11T03:30:22;-1.70;90.40
44707;DHT22;30433;45.596;8.408;2023-02-11T03:36:28;-2.20;90.50
44707;DHT22;30433;45.596;8.408;2023-02-11T03:42:33;-3.00;89.80
44707;DHT22;30433;45.596;8.408;2023-02-11T03:48:37;-3.50;90.50
44707;DHT22;30433;45.596;8.408;2023-02-11T03:54:40;-3.50;90.80
44707;DHT22;30433;45.596;8.408;2023-02-11T04:00:42;-2.80;91.40
44707;DHT22;30433;45.596;8.408;2023-02-11T04:06:45;-2.00;90.30
44707;DHT22;30433;45.596;8.408;2023-02-11T04:12:47;-2.00;90.00
44707;DHT22;30433;45.596;8.408;2023-02-11T04:18:49;-1.90;90.00
44707;DHT22;30433;45.596;8.408;2023-02-11T04:24:52;-1.90;90.30
44707;DHT22;30433;45.596;8.408;2023-02-11T04:30:54;-2.00;90.20
44707;DHT22;30433;45.596;8.408;2023-02-11T04:36:56;-1.60;90.20
44707;DHT22;30433;45.596;8.408;2023-02-11T04:42:59;-1.60;90.20
44707;DHT22;30433;45.596;8.408;2023-02-11T04:49:01;-1.50;90.00
44707;DHT22;30433;45.596;8.408;2023-02-11T04:55:03;-1.70;90.20
44707;DHT22;30433;45.596;8.408;2023-02-11T05:01:07;-1.70;90.10
44707;DHT22;30433;45.596;8.408;2023-02-11T05:07:09;-2.10;90.30
44707;DHT22;30433;45.596;8.408;2023-02-11T05:13:11;-2.30;90.80
44707;DHT22;30433;45.596;8.408;2023-02-11T05:19:14;-1.80;90.20
44707;DHT22;30433;45.596;8.408;2023-02-11T05:25:15;-1.50;89.70
44707;DHT22;30433;45.596;8.408;2023-02-11T05:31:17;-1.80;90.00
44707;DHT22;30433;45.596;8.408;2023-02-11T05:37:21;-1.80;90.30
44707;DHT22;30433;45.596;8.408;2023-02-11T05:43:22;-1.80;90.70
44707;DHT22;30433;45.596;8.408;2023-02-11T05:49:24;-1.70;90.40
44707;DHT22;30433;45.596;8.408;2023-02-11T05:55:27;-1.80;90.30
44707;DHT22;30433;45.596;8.408;2023-02-11T06:01:29;-1.70;90.30
44707;DHT22;30433;45.596;8.408;2023-02-11T06:07:31;-1.90;90.60
44707;DHT22;30433;45.596;8.408;2023-02-11T06:13:34;-1.50;90.10
44707;DHT22;30433;45.596;8.408;2023-02-11T06:19:36;-1.90;90.00
44707;DHT22;30433;45.596;8.408;2023-02-11T06:25:38;-2.10;90.60
44707;DHT22;30433;45.596;8.408;2023-02-11T06:31:41;-2.30;90.40
44707;DHT22;30433;45.596;8.408;2023-02-11T06:37:43;-1.90;90.70
44707;DHT22;30433;45.596;8.408;2023-02-11T06:43:45;-1.90;90.70
44707;DHT22;30433;45.596;8.408;2023-02-11T06:49:48;-2.30;90.60
44707;DHT22;30433;45.596;8.408;2023-02-11T06:55:50;-2.30;91.10
44707;DHT22;30433;45.596;8.408;2023-02-11T07:01:51;-2.80;91.50
44707;DHT22;30433;45.596;8.408;2023-02-11T07:07:55;-1.70;90.60
44707;DHT22;30433;45.596;8.408;2023-02-11T07:13:59;-1.60;90.60
44707;DHT22;30433;45.596;8.408;2023-02-11T07:20:01;-1.60;90.60
44707;DHT22;30433;45.596;8.408;2023-02-11T07:26:05;-1.20;90.10
44707;DHT22;30433;45.596;8.408;2023-02-11T07:32:07;-0.70;89.60
44707;DHT22;30433;45.596;8.408;2023-02-11T07:38:09;-0.40;90.40
44707;DHT22;30433;45.596;8.408;2023-02-11T07:44:12;0.00;90.70
44707;DHT22;30433;45.596;8.408;2023-02-11T07:50:15;0.20;90.30
44707;DHT22;30433;45.596;8.408;2023-02-11T07:56:17;0.60;90.10
44707;DHT22;30433;45.596;8.408;2023-02-11T08:02:20;1.10;88.30
44707;DHT22;30433;45.596;8.408;2023-02-11T08:08:24;1.20;88.50
44707;DHT22;30433;45.596;8.408;2023-02-11T08:14:26;1.40;88.60
44707;DHT22;30433;45.596;8.408;2023-02-11T08:20:29;1.70;87.40
44707;DHT22;30433;45.596;8.408;2023-02-11T08:26:31;2.20;87.10
44707;DHT22;30433;45.596;8.408;2023-02-11T08:32:34;2.60;85.60
44707;DHT22;30433;45.596;8.408;2023-02-11T08:38:37;2.80;84.40
44707;DHT22;30433;45.596;8.408;2023-02-11T08:44:39;3.10;84.80
44707;DHT22;30433;45.596;8.408;2023-02-11T08:50:41;2.60;87.00
44707;DHT22;30433;45.596;8.408;2023-02-11T08:56:44;2.70;87.20
44707;DHT22;30433;45.596;8.408;2023-02-11T09:02:46;3.00;87.20
44707;DHT22;30433;45.596;8.408;2023-02-11T09:08:49;3.80;84.90
44707;DHT22;30433;45.596;8.408;2023-02-11T09:14:53;3.60;83.10
44707;DHT22;30433;45.596;8.408;2023-02-11T09:21:00;4.10;80.60
44707;DHT22;30433;45.596;8.408;2023-02-11T09:27:02;4.40;81.30
44707;DHT22;30433;45.596;8.408;2023-02-11T09:33:05;4.30;81.10
44707;DHT22;30433;45.596;8.408;2023-02-11T09:39:08;4.70;80.70
44707;DHT22;30433;45.596;8.408;2023-02-11T09:45:12;4.80;81.40
44707;DHT22;30433;45.596;8.408;2023-02-11T09:51:19;5.20;79.10
44707;DHT22;30433;45.596;8.408;2023-02-11T09:57:23;5.10;80.30
44707;DHT22;30433;45.596;8.408;2023-02-11T10:09:58;4.90;79.00
44707;DHT22;30433;45.596;8.408;2023-02-11T10:16:05;4.80;78.70
44707;DHT22;30433;45.596;8.408;2023-02-11T10:22:11;5.20;79.90
44707;DHT22;30433;45.596;8.408;2023-02-11T10:28:17;5.20;78.50
44707;DHT22;30433;45.596;8.408;2023-02-11T10:34:19;5.20;77.50
44707;DHT22;30433;45.596;8.408;2023-02-11T10:40:22;5.70;79.40
44707;DHT22;30433;45.596;8.408;2023-02-11T10:46:26;6.00;78.50
44707;DHT22;30433;45.596;8.408;2023-02-11T10:52:30;5.70;76.20
44707;DHT22;30433;45.596;8.408;2023-02-11T10:58:33;6.00;78.30
44707;DHT22;30433;45.596;8.408;2023-02-11T11:04:39;5.80;77.70
44707;DHT22;30433;45.596;8.408;2023-02-11T11:10:43;5.90;76.10
44707;DHT22;30433;45.596;8.408;2023-02-11T11:16:50;5.80;76.20
44707;DHT22;30433;45.596;8.408;2023-02-11T11:23:06;6.00;75.80
44707;DHT22;30433;45.596;8.408;2023-02-11T11:29:12;6.10;75.40
44707;DHT22;30433;45.596;8.408;2023-02-11T11:35:23;6.10;74.40
44707;DHT22;30433;45.596;8.408;2023-02-11T11:41:27;6.60;76.00
44707;DHT22;30433;45.596;8.408;2023-02-11T11:47:35;6.70;75.90
44707;DHT22;30433;45.596;8.408;2023-02-11T11:53:42;7.00;75.50
44707;DHT22;30433;45.596;8.408;2023-02-11T11:59:47;7.10;75.80
44707;DHT22;30433;45.596;8.408;2023-02-11T12:05:50;7.40;76.00
44707;DHT22;30433;45.596;8.408;2023-02-11T12:12:03;7.60;78.70
44707;DHT22;30433;45.596;8.408;2023-02-11T12:18:12;7.70;78.60
44707;DHT22;30433;45.596;8.408;2023-02-11T12:24:28;7.80;77.00
44707;DHT22;30433;45.596;8.408;2023-02-11T12:30:40;8.00;73.80
44707;DHT22;30433;45.596;8.408;2023-02-11T12:36:51;8.10;73.90
44707;DHT22;30433;45.596;8.408;2023-02-11T12:42:58;8.10;73.40
44707;DHT22;30433;45.596;8.408;2023-02-11T12:49:20;8.40;74.20
44707;DHT22;30433;45.596;8.408;2023-02-11T12:55:27;8.50;72.80
44707;DHT22;30433;45.596;8.408;2023-02-11T13:01:31;8.70;72.90
44707;DHT22;30433;45.596;8.408;2023-02-11T13:07:35;8.90;72.20
44707;DHT22;30433;45.596;8.408;2023-02-11T13:13:45;9.10;73.10
44707;DHT22;30433;45.596;8.408;2023-02-11T13:19:48;9.20;73.90
44707;DHT22;30433;45.596;8.408;2023-02-11T13:25:52;9.40;69.20
44707;DHT22;30433;45.596;8.408;2023-02-11T13:32:04;9.40;70.60
44707;DHT22;30433;45.596;8.408;2023-02-11T13:38:16;9.40;71.80
44707;DHT22;30433;45.596;8.408;2023-02-11T13:44:25;9.60;71.50
44707;DHT22;30433;45.596;8.408;2023-02-11T13:50:30;9.70;70.50
44707;DHT22;30433;45.596;8.408;2023-02-11T13:56:33;9.10;68.90
44707;DHT22;30433;45.596;8.408;2023-02-11T14:02:36;9.70;69.50
44707;DHT22;30433;45.596;8.408;2023-02-11T14:09:00;9.90;70.10
44707;DHT22;30433;45.596;8.408;2023-02-11T14:21:32;9.80;66.40
44707;DHT22;30433;45.596;8.408;2023-02-11T14:27:38;9.90;67.20
44707;DHT22;30433;45.596;8.408;2023-02-11T14:40:01;9.80;67.00
44707;DHT22;30433;45.596;8.408;2023-02-11T14:46:08;9.50;65.20
44707;DHT22;30433;45.596;8.408;2023-02-11T14:52:14;9.60;64.60
44707;DHT22;30433;45.596;8.408;2023-02-11T14:58:18;8.80;62.90
44707;DHT22;30433;45.596;8.408;2023-02-11T15:04:25;9.60;64.90
44707;DHT22;30433;45.596;8.408;2023-02-11T15:10:29;9.40;64.70
44707;DHT22;30433;45.596;8.408;2023-02-11T15:16:31;9.30;63.60
44707;DHT22;30433;45.596;8.408;2023-02-11T15:22:35;9.30;66.20
44707;DHT22;30433;45.596;8.408;2023-02-11T15:28:43;9.20;65.30
44707;DHT22;30433;45.596;8.408;2023-02-11T15:34:51;9.10;65.90
44707;DHT22;30433;45.596;8.408;2023-02-11T15:40:58;9.00;65.10
44707;DHT22;30433;45.596;8.408;2023-02-11T15:47:01;9.00;66.40
44707;DHT22;30433;45.596;8.408;2023-02-11T15:53:17;8.80;65.50
44707;DHT22;30433;45.596;8.408;2023-02-11T15:59:24;8.50;65.60
44707;DHT22;30433;45.596;8.408;2023-02-11T16:05:28;8.60;65.80
44707;DHT22;30433;45.596;8.408;2023-02-11T16:11:31;8.50;65.50
44707;DHT22;30433;45.596;8.408;2023-02-11T16:17:34;8.30;66.40
44707;DHT22;30433;45.596;8.408;2023-02-11T16:23:37;8.00;68.30
44707;DHT22;30433;45.596;8.408;2023-02-11T16:29:41;7.80;68.70
44707;DHT22;30433;45.596;8.408;2023-02-11T16:35:47;7.70;70.30
44707;DHT22;30433;45.596;8.408;2023-02-11T16:41:49;7.50;68.40
44707;DHT22;30433;45.596;8.408;2023-02-11T16:47:51;7.30;71.50
44707;DHT22;30433;45.596;8.408;2023-02-11T16:53:55;7.00;69.80
44707;DHT22;30433;45.596;8.408;2023-02-11T16:59:57;6.70;70.90
44707;DHT22;30433;45.596;8.408;2023-02-11T17:05:59;5.90;71.30
44707;DHT22;30433;45.596;8.408;2023-02-11T17:12:04;6.20;71.60
44707;DHT22;30433;45.596;8.408;2023-02-11T17:18:05;5.80;73.10
44707;DHT22;30433;45.596;8.408;2023-02-11T17:24:07;5.60;74.70
44707;DHT22;30433;45.596;8.408;2023-02-11T17:30:12;5.40;72.80
44707;DHT22;30433;45.596;8.408;2023-02-11T17:36:14;4.90;72.20
44707;DHT22;30433;45.596;8.408;2023-02-11T17:42:15;4.60;73.70
44707;DHT22;30433;45.596;8.408;2023-02-11T17:48:20;4.10;75.10
44707;DHT22;30433;45.596;8.408;2023-02-11T17:54:21;5.00;74.30
44707;DHT22;30433;45.596;8.408;2023-02-11T18:00:24;4.50;75.20
44707;DHT22;30433;45.596;8.408;2023-02-11T18:06:29;4.20;75.60
44707;DHT22;30433;45.596;8.408;2023-02-11T18:12:33;3.90;77.20
44707;DHT22;30433;45.596;8.408;2023-02-11T18:18:34;2.30;78.60
44707;DHT22;30433;45.596;8.408;2023-02-11T18:24:38;3.10;79.20
44707;DHT22;30433;45.596;8.408;2023-02-11T18:30:40;3.30;78.40
44707;DHT22;30433;45.596;8.408;2023-02-11T18:36:41;2.90;79.50
44707;DHT22;30433;45.596;8.408;2023-02-11T18:42:45;3.10;80.60
44707;DHT22;30433;45.596;8.408;2023-02-11T18:48:47;2.80;82.30
44707;DHT22;30433;45.596;8.408;2023-02-11T18:54:49;2.50;82.70
44707;DHT22;30433;45.596;8.408;2023-02-11T19:00:52;2.70;82.20
44707;DHT22;30433;45.596;8.408;2023-02-11T19:06:54;2.30;83.60
44707;DHT22;30433;45.596;8.408;2023-02-11T19:12:56;2.00;84.00
44707;DHT22;30433;45.596;8.408;2023-02-11T19:18:59;1.50;84.30
44707;DHT22;30433;45.596;8.408;2023-02-11T19:25:01;1.70;84.50
44707;DHT22;30433;45.596;8.408;2023-02-11T19:31:04;2.30;84.20
44707;DHT22;30433;45.596;8.408;2023-02-11T19:37:07;1.70;86.60
44707;DHT22;30433;45.596;8.408;2023-02-11T19:43:10;1.20;87.00
44707;DHT22;30433;45.596;8.408;2023-02-11T19:49:13;1.70;86.10
44707;DHT22;30433;45.596;8.408;2023-02-11T19:55:16;1.40;87.10
44707;DHT22;30433;45.596;8.408;2023-02-11T20:01:19;1.70;86.30
44707;DHT22;30433;45.596;8.408;2023-02-11T20:07:21;1.10;88.10
44707;DHT22;30433;45.596;8.408;2023-02-11T20:13:25;1.20;87.10
44707;DHT22;30433;45.596;8.408;2023-02-11T20:19:27;1.40;87.70
44707;DHT22;30433;45.596;8.408;2023-02-11T20:25:30;1.60;86.50
44707;DHT22;30433;45.596;8.408;2023-02-11T20:31:33;1.50;88.60
44707;DHT22;30433;45.596;8.408;2023-02-11T20:37:35;1.70;86.90
44707;DHT22;30433;45.596;8.408;2023-02-11T20:43:38;1.70;87.80
44707;DHT22;30433;45.596;8.408;2023-02-11T20:49:41;1.60;88.00
44707;DHT22;30433;45.596;8.408;2023-02-11T20:55:43;2.10;88.00
44707;DHT22;30433;45.596;8.408;2023-02-11T21:01:45;2.10;87.60
44707;DHT22;30433;45.596;8.408;2023-02-11T21:07:49;1.50;88.20
44707;DHT22;30433;45.596;8.408;2023-02-11T21:13:51;1.10;90.20
44707;DHT22;30433;45.596;8.408;2023-02-11T21:19:53;1.20;89.70
44707;DHT22;30433;45.596;8.408;2023-02-11T21:25:56;1.30;90.30
44707;DHT22;30433;45.596;8.408;2023-02-11T21:31:59;1.30;90.20
44707;DHT22;30433;45.596;8.408;2023-02-11T21:38:01;0.40;90.60
44707;DHT22;30433;45.596;8.408;2023-02-11T21:44:04;0.30;91.00
44707;DHT22;30433;45.596;8.408;2023-02-11T21:50:06;-0.10;91.40
44707;DHT22;30433;45.596;8.408;2023-02-11T21:56:09;0.80;91.20
44707;DHT22;30433;45.596;8.408;2023-02-11T22:02:12;0.20;91.00
44707;DHT22;30433;45.596;8.408;2023-02-11T22:08:14;0.80;90.70
44707;DHT22;30433;45.596;8.408;2023-02-11T22:14:16;0.50;90.70
44707;DHT22;30433;45.596;8.408;2023-02-11T22:20:19;-0.10;91.00
44707;DHT22;30433;45.596;8.408;2023-02-11T22:26:22;0.00;91.50
44707;DHT22;30433;45.596;8.408;2023-02-11T22:32:24;0.20;90.80
44707;DHT22;30433;45.596;8.408;2023-02-11T22:38:27;-0.10;91.40
44707;DHT22;30433;45.596;8.408;2023-02-11T22:44:30;-0.10;90.70
44707;DHT22;30433;45.596;8.408;2023-02-11T22:50:32;0.00;91.90
44707;DHT22;30433;45.596;8.408;2023-02-11T22:56:36;0.30;91.40
44707;DHT22;30433;45.596;8.408;2023-02-11T23:02:37;0.30;91.40
44707;DHT22;30433;45.596;8.408;2023-02-11T23:08:40;0.20;91.50
44707;DHT22;30433;45.596;8.408;2023-02-11T23:14:43;-0.30;91.90
44707;DHT22;30433;45.596;8.408;2023-02-11T23:20:45;-0.20;91.50
44707;DHT22;30433;45.596;8.408;2023-02-11T23:26:47;0.00;92.10
44707;DHT22;30433;45.596;8.408;2023-02-11T23:32:50;0.50;91.20
44707;DHT22;30433;45.596;8.408;2023-02-11T23:38:52;-0.20;92.10
44707;DHT22;30433;45.596;8.408;2023-02-11T23:44:54;0.10;91.40
44707;DHT22;30433;45.596;8.408;2023-02-11T23:50:57;0.40;91.60
44707;DHT22;30433;45.596;8.408;2023-02-11T23:56:59;0.80;91.20
